Time;durP1;ratioP1;P1;durP2;ratioP2;P2;SDS_P1;SDS_P2;PMS_P1;PMS_P2;Temp;Humidity;BMP_temperature;BMP_pressure;BME280_temperature;BME280_humidity;BME280_pressure;Samples;Min_cycle;Max_cycle;Signal;HPM_P1;HPM_P2
2021/01/10 00:00:49;;;;;;;;;;;19.70;35.80;;;;;;491658;240;2144;-54
2021/01/10 00:02:50;;;;;;;;;;;19.70;35.90;;;;;;491680;240;1205;-54
2021/01/10 00:04:51;;;;;;;;;;;19.70;35.80;;;;;;491609;240;1048;-53
2021/01/10 00:06:53;;;;;;;;;;;19.80;35.90;;;;;;491535;240;1271;-54
2021/01/10 00:08:54;;;;;;;;;;;19.80;35.80;;;;;;491804;240;1089;-54
2021/01/10 00:10:55;;;;;;;;;;;19.70;35.80;;;;;;491598;240;1146;-54
2021/01/10 00:12:57;;;;;;;;;;;19.70;35.80;;;;;;491664;240;1108;-54
2021/01/10 00:14:58;;;;;;;;;;;19.80;35.80;;;;;;491689;240;1159;-54
2021/01/10 00:16:59;;;;;;;;;;;19.70;35.70;;;;;;491605;240;1292;-54
2021/01/10 00:19:00;;;;;;;;;;;19.80;35.70;;;;;;491599;240;1431;-54
2021/01/10 00:21:02;;;;;;;;;;;19.80;35.80;;;;;;491612;240;2176;-54
2021/01/10 00:23:03;;;;;;;;;;;19.80;35.80;;;;;;491628;240;1428;-54
2021/01/10 00:25:04;;;;;;;;;;;19.80;35.80;;;;;;491760;240;1337;-54
2021/01/10 00:27:06;;;;;;;;;;;19.70;35.70;;;;;;491611;240;1107;-54
2021/01/10 00:29:07;;;;;;;;;;;19.80;35.70;;;;;;491606;240;1224;-54
2021/01/10 00:31:08;;;;;;;;;;;19.80;35.70;;;;;;491682;240;1226;-54
2021/01/10 00:33:09;;;;;;;;;;;19.80;35.70;;;;;;491783;240;1221;-54
2021/01/10 00:35:11;;;;;;;;;;;19.80;35.70;;;;;;491619;240;1012;-54
2021/01/10 00:37:12;;;;;;;;;;;19.80;35.70;;;;;;491679;240;1245;-54
2021/01/10 00:39:13;;;;;;;;;;;19.80;35.70;;;;;;491659;240;1008;-54
2021/01/10 00:41:14;;;;;;;;;;;19.80;35.70;;;;;;491596;240;2146;-55
2021/01/10 00:43:16;;;;;;;;;;;19.80;35.70;;;;;;491730;240;1109;-54
2021/01/10 00:45:17;;;;;;;;;;;19.80;35.70;;;;;;491710;240;1053;-54
2021/01/10 00:47:19;;;;;;;;;;;19.80;35.70;;;;;;491639;240;1189;-54
2021/01/10 00:49:20;;;;;;;;;;;19.80;35.70;;;;;;491717;240;1046;-54
2021/01/10 00:51:21;;;;;;;;;;;19.80;35.70;;;;;;491596;240;962;-54
2021/01/10 00:53:22;;;;;;;;;;;19.80;35.70;;;;;;491681;240;1187;-55
2021/01/10 00:55:24;;;;;;;;;;;19.80;35.70;;;;;;491682;240;1073;-54
2021/01/10 00:57:25;;;;;;;;;;;19.80;35.70;;;;;;491749;240;1173;-54
2021/01/10 00:59:26;;;;;;;;;;;19.80;35.60;;;;;;491671;240;1110;-54
2021/01/10 01:01:28;;;;;;;;;;;19.80;35.70;;;;;;491539;240;2137;-54
2021/01/10 01:03:29;;;;;;;;;;;19.80;35.60;;;;;;491658;240;1276;-54
2021/01/10 01:05:30;;;;;;;;;;;19.80;35.60;;;;;;491759;240;1229;-54
2021/01/10 01:07:31;;;;;;;;;;;19.80;35.60;;;;;;491658;240;1130;-54
2021/01/10 01:09:33;;;;;;;;;;;19.80;35.60;;;;;;491682;240;1059;-54
2021/01/10 01:11:34;;;;;;;;;;;19.80;35.70;;;;;;491706;240;1140;-54
2021/01/10 01:13:35;;;;;;;;;;;19.80;35.60;;;;;;491687;240;1240;-54
2021/01/10 01:15:36;;;;;;;;;;;19.90;35.60;;;;;;491660;240;1226;-54
2021/01/10 01:17:38;;;;;;;;;;;19.90;35.60;;;;;;491726;240;1221;-54
2021/01/10 01:19:39;;;;;;;;;;;19.90;35.60;;;;;;491697;240;941;-54
2021/01/10 01:21:40;;;;;;;;;;;19.90;35.60;;;;;;491612;240;2169;-54
2021/01/10 01:23:42;;;;;;;;;;;19.90;35.60;;;;;;491655;240;1059;-54
2021/01/10 01:25:44;;;;;;;;;;;19.80;35.60;;;;;;491703;240;1213;-53
2021/01/10 01:27:44;;;;;;;;;;;19.90;35.60;;;;;;491624;240;1551;-54
2021/01/10 01:29:45;;;;;;;;;;;19.90;35.60;;;;;;491674;240;1092;-54
2021/01/10 01:31:47;;;;;;;;;;;19.90;35.50;;;;;;491783;240;1160;-54
2021/01/10 01:33:48;;;;;;;;;;;19.90;35.60;;;;;;491703;240;1183;-54
2021/01/10 01:35:49;;;;;;;;;;;19.90;35.50;;;;;;491015;241;1187;-54
2021/01/10 01:37:51;;;;;;;;;;;19.90;35.60;;;;;;491611;240;1133;-54
2021/01/10 01:39:52;;;;;;;;;;;19.90;35.60;;;;;;491725;240;1082;-54
2021/01/10 01:41:53;;;;;;;;;;;19.90;35.50;;;;;;491633;240;2128;-54
2021/01/10 01:43:54;;;;;;;;;;;19.90;35.50;;;;;;491699;240;993;-54
2021/01/10 01:45:56;;;;;;;;;;;19.90;35.60;;;;;;491714;240;1122;-54
2021/01/10 01:47:57;;;;;;;;;;;19.90;35.60;;;;;;491886;240;1174;-53
2021/01/10 01:49:58;;;;;;;;;;;19.90;35.50;;;;;;491745;240;1209;-54
2021/01/10 01:52:00;;;;;;;;;;;19.90;35.50;;;;;;491704;240;1147;-54
2021/01/10 01:54:01;;;;;;;;;;;19.90;35.50;;;;;;491789;240;1094;-54
2021/01/10 01:56:02;;;;;;;;;;;19.90;35.50;;;;;;491748;240;1337;-54
2021/01/10 01:58:03;;;;;;;;;;;19.90;35.50;;;;;;491631;240;1078;-53
2021/01/10 02:00:05;;;;;;;;;;;19.90;35.50;;;;;;491633;240;1079;-54
2021/01/10 02:02:06;;;;;;;;;;;19.90;35.50;;;;;;491599;240;2139;-54
2021/01/10 02:04:07;;;;;;;;;;;19.90;35.50;;;;;;491810;240;1341;-54
2021/01/10 02:06:08;;;;;;;;;;;19.90;35.40;;;;;;491642;240;1237;-54
2021/01/10 02:08:10;;;;;;;;;;;19.90;35.40;;;;;;491698;240;1243;-54
2021/01/10 02:10:11;;;;;;;;;;;19.90;35.40;;;;;;491645;240;1108;-54
2021/01/10 02:12:12;;;;;;;;;;;19.90;35.40;;;;;;491579;240;1254;-54
2021/01/10 02:14:14;;;;;;;;;;;19.90;35.50;;;;;;491654;240;961;-54
2021/01/10 02:16:15;;;;;;;;;;;19.90;35.40;;;;;;491669;240;1379;-54
2021/01/10 02:18:16;;;;;;;;;;;19.90;35.40;;;;;;491836;240;1068;-54
2021/01/10 02:20:17;;;;;;;;;;;19.90;35.50;;;;;;491587;240;1217;-54
2021/01/10 02:22:19;;;;;;;;;;;19.90;35.50;;;;;;491517;240;2129;-54
2021/01/10 02:24:20;;;;;;;;;;;19.90;35.40;;;;;;491740;240;982;-54
2021/01/10 02:26:21;;;;;;;;;;;19.90;35.40;;;;;;491651;240;1321;-53
2021/01/10 02:28:23;;;;;;;;;;;19.90;35.40;;;;;;491713;240;1245;-53
2021/01/10 02:30:24;;;;;;;;;;;19.90;35.40;;;;;;491847;240;1211;-55
2021/01/10 02:32:25;;;;;;;;;;;19.90;35.40;;;;;;491610;240;1208;-54
2021/01/10 02:34:26;;;;;;;;;;;19.90;35.30;;;;;;491657;240;1168;-54
2021/01/10 02:36:28;;;;;;;;;;;20.00;35.40;;;;;;491622;240;1636;-54
2021/01/10 02:38:29;;;;;;;;;;;20.00;35.40;;;;;;491672;240;1142;-54
2021/01/10 02:40:30;;;;;;;;;;;19.90;35.30;;;;;;491723;240;1052;-54
2021/01/10 02:42:31;;;;;;;;;;;19.90;35.30;;;;;;491610;240;2141;-54
2021/01/10 02:44:33;;;;;;;;;;;19.90;35.40;;;;;;491906;240;1124;-54
2021/01/10 02:46:34;;;;;;;;;;;20.00;35.30;;;;;;491628;240;1187;-54
2021/01/10 02:48:35;;;;;;;;;;;19.90;35.30;;;;;;491703;240;1045;-54
2021/01/10 02:50:36;;;;;;;;;;;19.90;35.30;;;;;;491575;240;1602;-54
2021/01/10 02:52:39;;;;;;;;;;;20.00;35.40;;;;;;491678;240;1162;-54
2021/01/10 02:54:39;;;;;;;;;;;19.90;35.30;;;;;;491630;242;1582;-54
2021/01/10 02:56:40;;;;;;;;;;;20.00;35.40;;;;;;491643;240;1226;-54
2021/01/10 02:58:42;;;;;;;;;;;20.00;35.40;;;;;;491748;240;1029;-54
2021/01/10 03:00:45;;;;;;;;;;;20.00;35.40;;;;;;491632;240;1214;-54
2021/01/10 03:02:46;;;;;;;;;;;20.00;34.10;;;;;;491651;240;2132;-54
2021/01/10 03:04:47;;;;;;;;;;;20.00;35.40;;;;;;491727;240;1181;-54
2021/01/10 03:06:48;;;;;;;;;;;20.00;35.30;;;;;;491199;241;1334;-54
2021/01/10 03:08:50;;;;;;;;;;;20.00;35.30;;;;;;491619;240;1177;-55
2021/01/10 03:10:51;;;;;;;;;;;20.00;35.30;;;;;;491682;240;1020;-54
2021/01/10 03:12:52;;;;;;;;;;;20.00;35.30;;;;;;491598;240;1201;-55
2021/01/10 03:14:54;;;;;;;;;;;20.00;35.30;;;;;;491861;240;1037;-54
2021/01/10 03:16:55;;;;;;;;;;;20.00;35.20;;;;;;491633;240;1226;-54
2021/01/10 03:18:56;;;;;;;;;;;20.00;35.30;;;;;;491655;240;1132;-54
2021/01/10 03:20:57;;;;;;;;;;;20.00;35.20;;;;;;491656;240;1181;-54
2021/01/10 03:22:59;;;;;;;;;;;20.00;35.30;;;;;;491850;240;2113;-54
2021/01/10 03:25:00;;;;;;;;;;;20.00;35.30;;;;;;491828;240;1207;-54
2021/01/10 03:27:01;;;;;;;;;;;20.00;35.30;;;;;;491682;240;1035;-54
2021/01/10 03:29:02;;;;;;;;;;;20.00;35.30;;;;;;491688;240;1036;-54
2021/01/10 03:31:04;;;;;;;;;;;20.10;35.80;;;;;;491841;240;1032;-54
2021/01/10 03:33:05;;;;;;;;;;;20.10;35.50;;;;;;491647;240;1006;-53
2021/01/10 03:35:06;;;;;;;;;;;20.10;35.30;;;;;;491678;240;1113;-54
2021/01/10 03:37:08;;;;;;;;;;;20.10;35.20;;;;;;491680;240;931;-54
2021/01/10 03:39:09;;;;;;;;;;;20.10;35.30;;;;;;491777;240;1057;-54
2021/01/10 03:41:10;;;;;;;;;;;20.00;34.10;;;;;;491624;240;1064;-54
2021/01/10 03:43:11;;;;;;;;;;;19.90;35.50;;;;;;491655;240;2180;-54
2021/01/10 03:45:13;;;;;;;;;;;19.90;35.60;;;;;;491861;240;987;-54
2021/01/10 03:47:14;;;;;;;;;;;19.80;35.70;;;;;;491571;240;1339;-54
2021/01/10 03:49:15;;;;;;;;;;;19.80;35.80;;;;;;491657;240;1143;-54
2021/01/10 03:51:17;;;;;;;;;;;19.70;35.90;;;;;;491662;240;1170;-54
2021/01/10 03:53:18;;;;;;;;;;;19.60;35.90;;;;;;492005;240;1208;-54
2021/01/10 03:55:19;;;;;;;;;;;19.60;36.10;;;;;;491657;240;1080;-54
2021/01/10 03:57:20;;;;;;;;;;;19.60;36.10;;;;;;491729;240;1148;-54
2021/01/10 03:59:22;;;;;;;;;;;19.50;36.20;;;;;;491766;240;1059;-53
2021/01/10 04:01:23;;;;;;;;;;;19.50;36.30;;;;;;491622;240;1156;-54
2021/01/10 04:03:24;;;;;;;;;;;19.40;36.30;;;;;;491753;240;1067;-54
2021/01/10 04:05:25;;;;;;;;;;;19.40;36.40;;;;;;491747;240;1192;-54
2021/01/10 04:07:27;;;;;;;;;;;19.30;36.40;;;;;;491672;240;1268;-54
2021/01/10 04:09:28;;;;;;;;;;;19.30;36.50;;;;;;491809;240;1150;-54
2021/01/10 04:11:29;;;;;;;;;;;19.20;36.50;;;;;;491624;240;1206;-54
2021/01/10 04:13:31;;;;;;;;;;;19.20;36.50;;;;;;491736;240;1033;-54
2021/01/10 04:15:32;;;;;;;;;;;19.20;36.60;;;;;;491606;240;1271;-54
2021/01/10 04:17:33;;;;;;;;;;;19.10;36.60;;;;;;491760;240;1288;-54
2021/01/10 04:19:34;;;;;;;;;;;19.10;36.60;;;;;;491020;241;1588;-54
2021/01/10 04:21:36;;;;;;;;;;;19.10;36.70;;;;;;491563;240;2163;-54
2021/01/10 04:23:37;;;;;;;;;;;19.10;36.80;;;;;;491653;240;1333;-54
2021/01/10 04:25:38;;;;;;;;;;;19.10;36.80;;;;;;491687;240;1449;-53
2021/01/10 04:27:39;;;;;;;;;;;19.00;36.90;;;;;;491556;240;1240;-54
2021/01/10 04:29:41;;;;;;;;;;;19.00;36.90;;;;;;491740;240;1047;-54
2021/01/10 04:31:42;;;;;;;;;;;18.90;36.90;;;;;;491582;240;1575;-54
2021/01/10 04:33:43;;;;;;;;;;;18.90;37.00;;;;;;491683;240;1162;-54
2021/01/10 04:35:45;;;;;;;;;;;18.90;37.00;;;;;;491693;238;1347;-54
2021/01/10 04:37:46;;;;;;;;;;;18.90;37.10;;;;;;491796;240;1186;-54
2021/01/10 04:39:47;;;;;;;;;;;18.80;37.00;;;;;;491616;240;1184;-54
2021/01/10 04:41:48;;;;;;;;;;;18.80;37.10;;;;;;491546;240;2191;-54
2021/01/10 04:43:50;;;;;;;;;;;18.80;37.10;;;;;;491750;240;1060;-54
2021/01/10 04:45:51;;;;;;;;;;;18.80;37.10;;;;;;491636;240;1284;-54
2021/01/10 04:47:52;;;;;;;;;;;18.80;37.10;;;;;;491748;240;1118;-54
2021/01/10 04:49:54;;;;;;;;;;;18.70;37.20;;;;;;491713;240;1242;-54
2021/01/10 04:51:55;;;;;;;;;;;18.70;37.20;;;;;;491636;240;1315;-53
2021/01/10 04:53:56;;;;;;;;;;;18.70;35.90;;;;;;491700;240;1121;-54
2021/01/10 04:55:58;;;;;;;;;;;18.70;37.20;;;;;;491794;240;1166;-54
2021/01/10 04:57:59;;;;;;;;;;;18.70;37.20;;;;;;491699;240;1028;-54
2021/01/10 05:00:00;;;;;;;;;;;18.60;37.20;;;;;;491769;240;1087;-54
2021/01/10 05:02:01;;;;;;;;;;;18.60;37.30;;;;;;491661;240;2144;-54
2021/01/10 05:04:03;;;;;;;;;;;18.60;37.30;;;;;;491698;240;1278;-54
2021/01/10 05:06:04;;;;;;;;;;;18.50;37.30;;;;;;491630;240;1305;-54
2021/01/10 05:08:05;;;;;;;;;;;18.50;37.30;;;;;;491869;240;1032;-54
2021/01/10 05:10:07;;;;;;;;;;;18.50;37.30;;;;;;491771;240;1007;-54
2021/01/10 05:12:08;;;;;;;;;;;18.50;37.30;;;;;;491835;240;1108;-54
2021/01/10 05:14:09;;;;;;;;;;;18.50;37.40;;;;;;491677;240;1075;-54
2021/01/10 05:16:10;;;;;;;;;;;18.50;37.40;;;;;;491794;240;1194;-53
2021/01/10 05:18:12;;;;;;;;;;;18.50;37.40;;;;;;491757;240;1092;-54
2021/01/10 05:20:15;;;;;;;;;;;18.50;37.40;;;;;;491805;240;1059;-54
2021/01/10 05:22:17;;;;;;;;;;;18.50;37.40;;;;;;491657;240;2161;-54
2021/01/10 05:24:18;;;;;;;;;;;18.40;37.40;;;;;;492003;240;1050;-54
2021/01/10 05:26:19;;;;;;;;;;;18.40;37.40;;;;;;491791;240;1540;-54
2021/01/10 05:28:21;;;;;;;;;;;18.40;37.50;;;;;;491813;240;1058;-54
2021/01/10 05:30:22;;;;;;;;;;;18.40;37.50;;;;;;491609;240;1231;-54
2021/01/10 05:32:23;;;;;;;;;;;18.40;37.50;;;;;;491609;240;1125;-54
2021/01/10 05:34:26;;;;;;;;;;;18.30;37.40;;;;;;491852;240;1049;-54
2021/01/10 05:36:26;;;;;;;;;;;18.40;37.50;;;;;;491643;241;2073;-54
2021/01/10 05:38:28;;;;;;;;;;;18.30;37.40;;;;;;491880;240;1079;-54
2021/01/10 05:40:29;;;;;;;;;;;18.40;37.50;;;;;;491593;240;1160;-54
2021/01/10 05:42:30;;;;;;;;;;;18.30;37.50;;;;;;491666;240;2144;-54
2021/01/10 05:44:31;;;;;;;;;;;18.30;37.50;;;;;;491787;240;1018;-54
2021/01/10 05:46:33;;;;;;;;;;;18.30;37.60;;;;;;491633;240;1238;-54
2021/01/10 05:48:34;;;;;;;;;;;18.30;37.50;;;;;;491773;240;1087;-54
2021/01/10 05:50:35;;;;;;;;;;;18.30;37.50;;;;;;491656;240;1235;-54
2021/01/10 05:52:36;;;;;;;;;;;18.30;37.60;;;;;;491699;240;1200;-54
2021/01/10 05:54:38;;;;;;;;;;;18.20;37.50;;;;;;491801;240;1071;-54
2021/01/10 05:56:39;;;;;;;;;;;18.20;37.50;;;;;;491611;240;1197;-54
2021/01/10 05:58:40;;;;;;;;;;;18.20;37.60;;;;;;491664;240;965;-54
2021/01/10 06:00:42;;;;;;;;;;;18.20;37.50;;;;;;491631;240;1347;-54
2021/01/10 06:02:44;;;;;;;;;;;18.20;37.60;;;;;;491842;240;2116;-54
2021/01/10 06:04:44;;;;;;;;;;;18.20;37.60;;;;;;491615;241;1485;-54
2021/01/10 06:06:45;;;;;;;;;;;18.20;37.40;;;;;;491617;240;1317;-55
2021/01/10 06:08:47;;;;;;;;;;;18.30;37.30;;;;;;491644;240;1075;-54
2021/01/10 06:10:48;;;;;;;;;;;18.30;37.20;;;;;;491628;240;1273;-54
2021/01/10 06:12:49;;;;;;;;;;;18.30;37.00;;;;;;491893;240;1190;-54
2021/01/10 06:14:51;;;;;;;;;;;18.40;37.10;;;;;;491646;240;1437;-54
2021/01/10 06:16:52;;;;;;;;;;;18.40;37.10;;;;;;491655;240;1164;-54
2021/01/10 06:18:53;;;;;;;;;;;18.40;37.00;;;;;;491675;240;1036;-54
2021/01/10 06:20:54;;;;;;;;;;;18.40;36.90;;;;;;491645;240;1201;-54
2021/01/10 06:22:56;;;;;;;;;;;18.40;36.90;;;;;;491684;240;2181;-54
2021/01/10 06:24:57;;;;;;;;;;;18.50;36.90;;;;;;491943;240;1078;-54
2021/01/10 06:26:58;;;;;;;;;;;18.50;36.80;;;;;;491684;240;1405;-54
2021/01/10 06:28:59;;;;;;;;;;;18.50;36.80;;;;;;491778;240;1153;-54
2021/01/10 06:31:01;;;;;;;;;;;18.50;36.80;;;;;;491590;240;1573;-54
2021/01/10 06:33:02;;;;;;;;;;;18.50;36.70;;;;;;491625;240;1127;-54
2021/01/10 06:35:03;;;;;;;;;;;18.50;36.70;;;;;;491745;240;1460;-54
2021/01/10 06:37:05;;;;;;;;;;;18.60;36.70;;;;;;491557;240;1745;-54
2021/01/10 06:39:06;;;;;;;;;;;18.60;36.60;;;;;;491674;240;1064;-54
2021/01/10 06:41:07;;;;;;;;;;;18.60;36.60;;;;;;491609;240;1194;-54
2021/01/10 06:43:08;;;;;;;;;;;18.60;36.50;;;;;;491604;240;2192;-54
2021/01/10 06:45:10;;;;;;;;;;;18.60;36.50;;;;;;491605;240;1227;-54
2021/01/10 06:47:11;;;;;;;;;;;18.70;36.50;;;;;;491540;240;1138;-54
2021/01/10 06:49:12;;;;;;;;;;;18.70;36.40;;;;;;491720;240;934;-54
2021/01/10 06:51:14;;;;;;;;;;;18.70;36.40;;;;;;491590;240;1360;-53
2021/01/10 06:53:15;;;;;;;;;;;18.70;36.40;;;;;;491672;240;1144;-54
2021/01/10 06:55:16;;;;;;;;;;;18.70;36.30;;;;;;491595;240;1647;-54
2021/01/10 06:57:17;;;;;;;;;;;18.80;36.30;;;;;;491532;240;1142;-54
2021/01/10 06:59:19;;;;;;;;;;;18.80;36.30;;;;;;491643;240;1180;-54
2021/01/10 07:01:20;;;;;;;;;;;18.80;36.30;;;;;;491704;240;1237;-54
2021/01/10 07:03:21;;;;;;;;;;;18.80;36.20;;;;;;491588;240;2177;-54
2021/01/10 07:05:22;;;;;;;;;;;18.80;36.20;;;;;;491595;240;1331;-54
2021/01/10 07:07:24;;;;;;;;;;;18.80;36.20;;;;;;491535;240;1228;-54
2021/01/10 07:09:25;;;;;;;;;;;18.90;36.20;;;;;;491778;240;1095;-54
2021/01/10 07:11:26;;;;;;;;;;;18.90;36.10;;;;;;491614;240;1216;-55
2021/01/10 07:13:28;;;;;;;;;;;18.90;36.10;;;;;;491635;240;1151;-54
2021/01/10 07:15:29;;;;;;;;;;;18.90;36.10;;;;;;491641;240;1059;-54
2021/01/10 07:17:33;;;;;;;;;;;18.90;36.10;;;;;;491611;240;1190;-54
2021/01/10 07:19:32;;;;;;;;;;;18.90;36.00;;;;;;491641;240;1275;-54
2021/01/10 07:21:33;;;;;;;;;;;18.90;36.00;;;;;;491614;240;1085;-53
2021/01/10 07:23:34;;;;;;;;;;;19.00;36.10;;;;;;491697;240;2161;-54
2021/01/10 07:25:36;;;;;;;;;;;19.00;36.00;;;;;;491661;240;1063;-54
2021/01/10 07:27:37;;;;;;;;;;;19.00;36.00;;;;;;491665;240;1454;-53
2021/01/10 07:29:38;;;;;;;;;;;19.00;36.00;;;;;;492000;240;946;-54
2021/01/10 07:31:40;;;;;;;;;;;19.00;36.00;;;;;;491648;240;1271;-54
2021/01/10 07:33:41;;;;;;;;;;;19.00;35.90;;;;;;491777;240;967;-54
2021/01/10 07:35:42;;;;;;;;;;;19.00;36.00;;;;;;491775;240;1226;-54
2021/01/10 07:37:43;;;;;;;;;;;19.00;35.90;;;;;;491727;240;1128;-54
2021/01/10 07:39:45;;;;;;;;;;;19.00;35.90;;;;;;491967;240;1038;-54
2021/01/10 07:41:46;;;;;;;;;;;19.10;35.90;;;;;;491528;240;1152;-54
2021/01/10 07:43:47;;;;;;;;;;;19.10;35.90;;;;;;491656;240;2177;-54
2021/01/10 07:45:49;;;;;;;;;;;19.10;35.90;;;;;;491635;240;1146;-54
2021/01/10 07:47:50;;;;;;;;;;;19.10;35.80;;;;;;491762;240;1062;-54
2021/01/10 07:49:51;;;;;;;;;;;19.10;35.80;;;;;;491765;240;1054;-54
2021/01/10 07:51:52;;;;;;;;;;;19.10;35.80;;;;;;491581;240;1110;-54
2021/01/10 07:53:55;;;;;;;;;;;19.10;35.80;;;;;;491686;240;1190;-53
2021/01/10 07:55:55;;;;;;;;;;;19.10;35.70;;;;;;491546;242;1576;-54
2021/01/10 07:57:57;;;;;;;;;;;19.10;35.70;;;;;;491624;240;1038;-54
2021/01/10 07:59:58;;;;;;;;;;;19.20;35.80;;;;;;491685;240;1142;-53
2021/01/10 08:01:59;;;;;;;;;;;19.20;35.80;;;;;;491649;240;1152;-54
2021/01/10 08:04:00;;;;;;;;;;;19.20;35.70;;;;;;491675;240;2137;-54
2021/01/10 08:06:02;;;;;;;;;;;19.20;35.80;;;;;;491705;240;1234;-53
2021/01/10 08:08:03;;;;;;;;;;;19.20;35.70;;;;;;491758;240;1215;-54
2021/01/10 08:10:05;;;;;;;;;;;19.20;34.30;;;;;;491628;240;1315;-54
2021/01/10 08:12:06;;;;;;;;;;;19.20;35.70;;;;;;491568;240;1279;-54
2021/01/10 08:14:07;;;;;;;;;;;19.20;35.60;;;;;;491673;240;1036;-54
2021/01/10 08:16:08;;;;;;;;;;;19.20;35.60;;;;;;491483;240;1196;-54
2021/01/10 08:18:10;;;;;;;;;;;19.30;35.60;;;;;;491778;240;1043;-54
2021/01/10 08:20:11;;;;;;;;;;;19.30;35.60;;;;;;491572;240;1341;-53
2021/01/10 08:22:15;;;;;;;;;;;19.30;35.60;;;;;;491638;240;1505;-54
2021/01/10 08:24:15;;;;;;;;;;;19.30;35.60;;;;;;491668;241;2199;-54
2021/01/10 08:26:15;;;;;;;;;;;19.30;35.60;;;;;;491595;240;2424;-54
2021/01/10 08:28:16;;;;;;;;;;;19.30;35.60;;;;;;491662;240;1040;-54
2021/01/10 08:30:18;;;;;;;;;;;19.30;35.50;;;;;;491588;240;1277;-54
2021/01/10 08:32:19;;;;;;;;;;;19.30;35.50;;;;;;491536;240;1299;-54
2021/01/10 08:34:22;;;;;;;;;;;19.30;35.50;;;;;;491651;240;1386;-54
2021/01/10 08:36:23;;;;;;;;;;;19.30;35.50;;;;;;491529;240;1315;-55
2021/01/10 08:38:24;;;;;;;;;;;19.40;35.60;;;;;;491585;240;1234;-54
2021/01/10 08:40:25;;;;;;;;;;;19.40;35.60;;;;;;491546;240;1338;-54
2021/01/10 08:42:27;;;;;;;;;;;19.40;35.60;;;;;;491770;240;1524;-53
2021/01/10 08:44:28;;;;;;;;;;;19.40;35.50;;;;;;491785;240;2139;-54
2021/01/10 08:46:29;;;;;;;;;;;19.40;35.50;;;;;;491696;240;1291;-54
2021/01/10 08:48:30;;;;;;;;;;;19.40;35.50;;;;;;491826;240;1081;-54
2021/01/10 08:50:32;;;;;;;;;;;19.40;35.40;;;;;;491746;240;1236;-54
2021/01/10 08:52:33;;;;;;;;;;;19.40;35.50;;;;;;491754;240;1237;-54
2021/01/10 08:54:34;;;;;;;;;;;19.40;35.40;;;;;;491669;240;1375;-54
2021/01/10 08:56:36;;;;;;;;;;;19.40;35.50;;;;;;491704;240;1198;-54
2021/01/10 08:58:37;;;;;;;;;;;19.40;35.50;;;;;;491714;240;1010;-54
2021/01/10 09:00:38;;;;;;;;;;;19.40;35.40;;;;;;491854;240;1163;-54
2021/01/10 09:02:39;;;;;;;;;;;19.40;35.40;;;;;;491652;240;1171;-54
2021/01/10 09:04:41;;;;;;;;;;;19.40;35.40;;;;;;491621;240;2192;-54
2021/01/10 09:06:42;;;;;;;;;;;19.40;35.30;;;;;;491491;240;1294;-54
2021/01/10 09:08:43;;;;;;;;;;;19.40;35.40;;;;;;491681;240;1171;-54
2021/01/10 09:10:45;;;;;;;;;;;19.40;35.40;;;;;;491626;240;1288;-54
2021/01/10 09:12:46;;;;;;;;;;;19.50;35.40;;;;;;491864;240;1116;-54
2021/01/10 09:14:47;;;;;;;;;;;19.50;35.40;;;;;;491660;240;1230;-54
2021/01/10 09:16:48;;;;;;;;;;;19.50;35.40;;;;;;491778;240;1076;-54
2021/01/10 09:18:50;;;;;;;;;;;19.40;35.30;;;;;;491711;240;1150;-54
2021/01/10 09:20:51;;;;;;;;;;;19.50;34.00;;;;;;491576;240;1291;-54
2021/01/10 09:22:52;;;;;;;;;;;19.50;35.40;;;;;;491720;240;1162;-54
2021/01/10 09:24:53;;;;;;;;;;;19.50;35.40;;;;;;491562;242;2180;-54
2021/01/10 09:26:55;;;;;;;;;;;19.50;35.30;;;;;;491663;240;1369;-54
2021/01/10 09:28:56;;;;;;;;;;;19.50;35.30;;;;;;491688;240;1062;-54
2021/01/10 09:30:57;;;;;;;;;;;19.50;35.30;;;;;;491724;240;1068;-54
2021/01/10 09:32:59;;;;;;;;;;;19.50;35.30;;;;;;491663;240;1333;-55
2021/01/10 09:35:00;;;;;;;;;;;19.50;35.30;;;;;;491731;240;1040;-54
2021/01/10 09:37:01;;;;;;;;;;;19.50;35.30;;;;;;491635;240;1074;-54
2021/01/10 09:39:03;;;;;;;;;;;19.50;35.30;;;;;;491658;240;1188;-54
2021/01/10 09:41:04;;;;;;;;;;;19.50;35.30;;;;;;491660;240;1065;-54
2021/01/10 09:43:05;;;;;;;;;;;19.60;35.40;;;;;;491652;240;1196;-54
2021/01/10 09:45:07;;;;;;;;;;;19.60;35.30;;;;;;491697;240;2121;-53
2021/01/10 09:47:08;;;;;;;;;;;19.60;35.30;;;;;;491761;240;1041;-54
2021/01/10 09:49:09;;;;;;;;;;;19.60;35.30;;;;;;491851;240;1108;-54
2021/01/10 09:51:10;;;;;;;;;;;19.60;35.20;;;;;;491639;240;1061;-54
2021/01/10 09:53:12;;;;;;;;;;;19.60;35.20;;;;;;491652;240;1316;-54
2021/01/10 09:55:13;;;;;;;;;;;19.60;35.20;;;;;;491754;240;1156;-54
2021/01/10 09:57:16;;;;;;;;;;;19.60;33.90;;;;;;491952;240;998;-54
2021/01/10 09:59:16;;;;;;;;;;;19.60;35.20;;;;;;492031;241;2210;-54
2021/01/10 10:01:17;;;;;;;;;;;19.60;35.20;;;;;;491937;240;1043;-54
2021/01/10 10:03:18;;;;;;;;;;;19.60;35.10;;;;;;491881;240;1042;-54
2021/01/10 10:05:20;;;;;;;;;;;19.60;35.20;;;;;;491845;240;2195;-54
2021/01/10 10:07:23;;;;;;;;;;;19.60;35.10;;;;;;491664;240;2263;-54
2021/01/10 10:09:24;;;;;;;;;;;19.60;35.10;;;;;;491677;240;1217;-54
2021/01/10 10:11:26;;;;;;;;;;;19.60;35.10;;;;;;491707;240;1144;-54
2021/01/10 10:13:27;;;;;;;;;;;19.60;35.20;;;;;;491663;240;2267;-54
2021/01/10 10:15:28;;;;;;;;;;;19.60;35.10;;;;;;491933;240;1148;-54
2021/01/10 10:17:30;;;;;;;;;;;19.60;35.10;;;;;;491746;240;1063;-54
2021/01/10 10:19:31;;;;;;;;;;;19.60;35.20;;;;;;491784;240;1342;-54
2021/01/10 10:21:32;;;;;;;;;;;19.60;35.10;;;;;;491585;240;1143;-54
2021/01/10 10:23:34;;;;;;;;;;;19.60;35.10;;;;;;491699;240;2187;-54
2021/01/10 10:25:35;;;;;;;;;;;19.60;35.10;;;;;;491592;240;1631;-54
2021/01/10 10:27:36;;;;;;;;;;;19.60;35.10;;;;;;491658;240;1141;-54
2021/01/10 10:29:38;;;;;;;;;;;19.70;35.10;;;;;;491837;240;1065;-54
2021/01/10 10:31:39;;;;;;;;;;;19.60;35.10;;;;;;491891;240;1091;-54
2021/01/10 10:33:40;;;;;;;;;;;19.70;35.20;;;;;;491662;240;1126;-54
2021/01/10 10:35:41;;;;;;;;;;;19.70;35.20;;;;;;491690;240;1058;-54
2021/01/10 10:37:43;;;;;;;;;;;19.70;35.10;;;;;;491756;240;1164;-54
2021/01/10 10:39:44;;;;;;;;;;;19.70;35.10;;;;;;491674;240;1150;-54
2021/01/10 10:41:45;;;;;;;;;;;19.70;33.80;;;;;;491733;240;1164;-55
2021/01/10 10:43:47;;;;;;;;;;;19.70;35.10;;;;;;491670;240;2196;-54
2021/01/10 10:45:48;;;;;;;;;;;19.70;35.10;;;;;;491728;240;1019;-53
2021/01/10 10:47:49;;;;;;;;;;;19.70;35.10;;;;;;491609;240;1134;-54
2021/01/10 10:49:50;;;;;;;;;;;19.70;35.10;;;;;;491701;240;1067;-54
2021/01/10 10:51:52;;;;;;;;;;;19.70;35.10;;;;;;491628;240;1155;-54
2021/01/10 10:53:53;;;;;;;;;;;19.70;35.10;;;;;;491669;240;1038;-54
2021/01/10 10:55:54;;;;;;;;;;;19.70;33.80;;;;;;491629;240;1247;-54
2021/01/10 10:57:56;;;;;;;;;;;19.70;35.10;;;;;;491699;240;980;-54
2021/01/10 10:59:57;;;;;;;;;;;19.70;35.10;;;;;;491834;240;928;-54
2021/01/10 11:01:58;;;;;;;;;;;19.70;35.10;;;;;;491642;240;1098;-54
2021/01/10 11:03:59;;;;;;;;;;;19.70;35.00;;;;;;491658;240;2188;-54
2021/01/10 11:06:01;;;;;;;;;;;19.70;35.10;;;;;;491551;240;1386;-54
2021/01/10 11:08:02;;;;;;;;;;;19.70;35.00;;;;;;491786;240;1085;-54
2021/01/10 11:10:03;;;;;;;;;;;19.70;33.70;;;;;;491799;240;1139;-54
2021/01/10 11:12:05;;;;;;;;;;;19.70;35.00;;;;;;491712;240;1057;-54
2021/01/10 11:14:06;;;;;;;;;;;19.80;35.10;;;;;;491778;240;995;-54
2021/01/10 11:16:07;;;;;;;;;;;19.70;35.00;;;;;;491797;240;1460;-54
2021/01/10 11:18:08;;;;;;;;;;;19.80;35.00;;;;;;491650;240;976;-54
2021/01/10 11:20:10;;;;;;;;;;;19.80;35.00;;;;;;491620;240;1033;-54
2021/01/10 11:22:11;;;;;;;;;;;19.70;35.00;;;;;;491849;240;1248;-54
2021/01/10 11:24:12;;;;;;;;;;;19.80;35.00;;;;;;491705;240;2180;-54
2021/01/10 11:26:13;;;;;;;;;;;19.80;35.00;;;;;;491712;240;1296;-54
2021/01/10 11:28:15;;;;;;;;;;;19.70;34.90;;;;;;491688;240;1061;-54
2021/01/10 11:30:16;;;;;;;;;;;19.80;35.00;;;;;;491779;240;1190;-54
2021/01/10 11:32:17;;;;;;;;;;;19.80;35.00;;;;;;491684;240;1150;-54
2021/01/10 11:34:18;;;;;;;;;;;19.80;35.00;;;;;;491699;240;1062;-54
2021/01/10 11:36:20;;;;;;;;;;;19.80;35.00;;;;;;491572;240;1077;-54
2021/01/10 11:38:21;;;;;;;;;;;19.80;35.00;;;;;;491753;240;1168;-54
2021/01/10 11:40:22;;;;;;;;;;;19.80;35.00;;;;;;491671;240;1113;-54
2021/01/10 11:42:24;;;;;;;;;;;19.80;35.00;;;;;;491678;240;1275;-54
2021/01/10 11:44:25;;;;;;;;;;;19.80;35.00;;;;;;491644;240;2133;-54
2021/01/10 11:46:26;;;;;;;;;;;19.80;35.00;;;;;;491558;240;1177;-54
2021/01/10 11:48:27;;;;;;;;;;;19.80;35.00;;;;;;491646;240;1059;-54
2021/01/10 11:50:30;;;;;;;;;;;19.80;35.00;;;;;;491629;240;1005;-54
2021/01/10 11:52:32;;;;;;;;;;;19.80;35.00;;;;;;491722;240;1344;-54
2021/01/10 11:54:33;;;;;;;;;;;19.80;34.90;;;;;;491654;240;1070;-54
2021/01/10 11:56:34;;;;;;;;;;;19.80;34.90;;;;;;491705;240;1167;-53